Time,TemperatureF,DewpointF,PressureIn,WindDirection,WindDirectionDegrees,WindSpeedMPH,WindSpeedGustMPH,Humidity,HourlyPrecipIn,Conditions,Clouds,dailyrainin,SolarRadiationWatts/m^2,SoftwareType,DateUTC
2013-06-10 00:01:00,62.4,58.7,30.12,North,0,0.0,0.0,88,0.00,,,0.00,0,HR-IXPWINDi_r2_v1.2.,2013-06-10 04:01:00,
2013-06-10 00:06:00,62.6,58.9,30.12,North,0,0.0,0.0,88,0.00,,,0.00,0,HR-IXPWINDi_r2_v1.2.,2013-06-10 04:06:00,
2013-06-10 00:11:00,62.6,58.9,30.12,North,0,0.0,0.0,88,0.00,,,0.00,0,HR-IXPWINDi_r2_v1.2.,2013-06-10 04:11:00,
2013-06-10 00:16:00,62.6,58.9,30.12,North,0,0.0,0.0,88,0.00,,,0.00,0,HR-IXPWINDi_r2_v1.2.,2013-06-10 04:16:00,
2013-06-10 00:21:00,62.7,59.0,30.12,North,0,0.0,0.0,88,0.00,,,0.00,0,HR-IXPWINDi_r2_v1.2.,2013-06-10 04:21:00,
2013-06-10 00:26:00,62.6,58.9,30.12,North,0,0.0,0.0,88,0.00,,,0.00,0,HR-IXPWINDi_r2_v1.2.,2013-06-10 04:26:00,
2013-06-10 00:31:00,62.6,58.9,30.12,North,0,0.0,0.0,88,0.00,,,0.00,0,HR-IXPWINDi_r2_v1.2.,2013-06-10 04:31:00,
2013-06-10 00:37:00,62.4,58.7,30.12,North,0,0.0,0.0,88,0.00,,,0.00,0,HR-IXPWINDi_r2_v1.2.,2013-06-10 04:37:00,
2013-06-10 00:42:00,62.3,58.6,30.12,North,0,0.0,0.0,88,0.00,,,0.00,0,HR-IXPWINDi_r2_v1.2.,2013-06-10 04:42:00,
2013-06-10 00:47:00,62.1,58.8,30.12,North,0,0.0,0.0,89,0.00,,,0.00,0,HR-IXPWINDi_r2_v1.2.,2013-06-10 04:47:00,
2013-06-10 00:52:00,62.1,58.8,30.12,North,0,0.0,0.0,89,0.00,,,0.00,0,HR-IXPWINDi_r2_v1.2.,2013-06-10 04:52:00,
2013-06-10 00:57:00,62.3,58.9,30.12,North,0,0.0,0.0,89,0.00,,,0.00,0,HR-IXPWINDi_r2_v1.2.,2013-06-10 04:57:00,
2013-06-10 01:02:00,62.4,59.0,30.12,North,0,0.0,0.0,89,0.00,,,0.00,0,HR-IXPWINDi_r2_v1.2.,2013-06-10 05:02:00,
2013-06-10 01:07:00,62.4,59.0,30.12,North,0,0.0,0.0,89,0.00,,,0.00,0,HR-IXPWINDi_r2_v1.2.,2013-06-10 05:07:00,
2013-06-10 01:12:00,62.3,58.9,30.12,North,0,0.0,0.0,89,0.00,,,0.00,0,HR-IXPWINDi_r2_v1.2.,2013-06-10 05:12:00,
2013-06-10 01:17:00,62.3,58.9,30.12,North,0,0.0,0.0,89,0.00,,,0.00,0,HR-IXPWINDi_r2_v1.2.,2013-06-10 05:17:00,
2013-06-10 01:22:00,62.1,58.8,30.13,North,0,0.0,0.0,89,0.00,,,0.00,0,HR-IXPWINDi_r2_v1.2.,2013-06-10 05:22:00,
2013-06-10 01:27:00,62.0,58.7,30.13,North,0,0.0,0.0,89,0.00,,,0.00,0,HR-IXPWINDi_r2_v1.2.,2013-06-10 05:27:00,
2013-06-10 01:33:00,62.0,58.7,30.13,North,0,0.0,0.0,89,0.00,,,0.00,0,HR-IXPWINDi_r2_v1.2.,2013-06-10 05:33:00,
2013-06-10 01:38:00,62.0,59.0,30.12,North,0,0.0,0.0,90,0.00,,,0.00,0,HR-IXPWINDi_r2_v1.2.,2013-06-10 05:38:00,
2013-06-10 01:43:00,61.8,58.8,30.12,North,0,0.0,0.0,90,0.00,,,0.00,0,HR-IXPWINDi_r2_v1.2.,2013-06-10 05:43:00,
2013-06-10 01:48:00,61.8,58.8,30.12,North,0,0.0,0.0,90,0.00,,,0.00,0,HR-IXPWINDi_r2_v1.2.,2013-06-10 05:48:00,
2013-06-10 01:53:00,61.8,58.8,30.12,North,0,0.0,0.0,90,0.00,,,0.00,0,HR-IXPWINDi_r2_v1.2.,2013-06-10 05:53:00,
2013-06-10 01:59:00,61.8,58.8,30.12,North,0,0.0,0.0,90,0.00,,,0.00,0,HR-IXPWINDi_r2_v1.2.,2013-06-10 05:59:00,
2013-06-10 02:04:00,61.8,58.8,30.12,North,0,0.0,0.0,90,0.00,,,0.00,0,HR-IXPWINDi_r2_v1.2.,2013-06-10 06:04:00,
2013-06-10 02:09:00,62.0,59.0,30.12,North,0,0.0,0.0,90,0.00,,,0.00,0,HR-IXPWINDi_r2_v1.2.,2013-06-10 06:09:00,
2013-06-10 02:14:00,62.0,59.0,30.12,North,0,0.0,0.0,90,0.00,,,0.00,0,HR-IXPWINDi_r2_v1.2.,2013-06-10 06:14:00,
2013-06-10 02:19:00,62.3,59.6,30.12,North,0,0.0,0.0,91,0.00,,,0.00,0,HR-IXPWINDi_r2_v1.2.,2013-06-10 06:19:00,
2013-06-10 02:25:00,62.4,59.7,30.12,North,0,0.0,0.0,91,0.00,,,0.00,0,HR-IXPWINDi_r2_v1.2.,2013-06-10 06:25:00,
2013-06-10 02:30:00,62.4,59.7,30.12,North,0,0.0,0.0,91,0.00,,,0.00,0,HR-IXPWINDi_r2_v1.2.,2013-06-10 06:30:00,
2013-06-10 02:35:00,62.4,59.4,30.11,North,0,0.0,0.0,90,0.00,,,0.00,0,HR-IXPWINDi_r2_v1.2.,2013-06-10 06:35:00,
2013-06-10 02:40:00,62.4,59.4,30.11,North,0,0.0,0.0,90,0.00,,,0.00,0,HR-IXPWINDi_r2_v1.2.,2013-06-10 06:40:00,
2013-06-10 02:46:00,62.3,59.3,30.11,North,0,0.0,0.0,90,0.00,,,0.00,0,HR-IXPWINDi_r2_v1.2.,2013-06-10 06:46:00,
2013-06-10 02:51:00,62.3,59.6,30.11,North,0,0.0,0.0,91,0.00,,,0.00,0,HR-IXPWINDi_r2_v1.2.,2013-06-10 06:51:00,
2013-06-10 02:57:00,62.3,59.6,30.11,North,0,0.0,0.0,91,0.00,,,0.00,0,HR-IXPWINDi_r2_v1.2.,2013-06-10 06:57:00,
2013-06-10 03:02:00,62.4,59.7,30.11,North,0,0.0,0.0,91,0.00,,,0.00,0,HR-IXPWINDi_r2_v1.2.,2013-06-10 07:02:00,
2013-06-10 03:07:00,62.4,59.7,30.11,North,0,0.0,0.0,91,0.00,,,0.00,0,HR-IXPWINDi_r2_v1.2.,2013-06-10 07:07:00,
2013-06-10 03:12:00,62.4,59.7,30.11,North,0,0.0,0.0,91,0.00,,,0.00,0,HR-IXPWINDi_r2_v1.2.,2013-06-10 07:12:00,
2013-06-10 03:18:00,62.4,59.7,30.11,North,0,0.0,0.0,91,0.00,,,0.00,0,HR-IXPWINDi_r2_v1.2.,2013-06-10 07:18:00,
2013-06-10 03:23:00,62.4,59.7,30.11,North,0,0.0,0.0,91,0.00,,,0.00,0,HR-IXPWINDi_r2_v1.2.,2013-06-10 07:23:00,
2013-06-10 03:28:00,62.4,59.7,30.11,North,0,0.0,0.0,91,0.00,,,0.00,0,HR-IXPWINDi_r2_v1.2.,2013-06-10 07:28:00,
2013-06-10 03:33:00,62.4,59.7,30.11,North,0,0.0,0.0,91,0.00,,,0.00,0,HR-IXPWINDi_r2_v1.2.,2013-06-10 07:33:00,
2013-06-10 03:38:00,62.4,59.7,30.11,North,0,0.0,0.0,91,0.00,,,0.00,0,HR-IXPWINDi_r2_v1.2.,2013-06-10 07:38:00,
2013-06-10 03:44:00,62.4,59.7,30.11,North,0,0.0,0.0,91,0.00,,,0.00,0,HR-IXPWINDi_r2_v1.2.,2013-06-10 07:44:00,
2013-06-10 03:49:00,62.4,59.7,30.11,North,0,0.0,0.0,91,0.00,,,0.00,0,HR-IXPWINDi_r2_v1.2.,2013-06-10 07:49:00,
2013-06-10 03:54:00,62.6,59.9,30.11,North,0,0.0,0.0,91,0.00,,,0.00,0,HR-IXPWINDi_r2_v1.2.,2013-06-10 07:54:00,
2013-06-10 04:00:00,62.6,59.9,30.11,North,0,0.0,0.0,91,0.00,,,0.00,0,HR-IXPWINDi_r2_v1.2.,2013-06-10 08:00:00,
2013-06-10 04:05:00,62.6,59.9,30.11,North,0,0.0,0.0,91,0.00,,,0.00,0,HR-IXPWINDi_r2_v1.2.,2013-06-10 08:05:00,
2013-06-10 04:10:00,62.7,60.0,30.11,North,0,0.0,0.0,91,0.00,,,0.00,0,HR-IXPWINDi_r2_v1.2.,2013-06-10 08:10:00,
2013-06-10 04:15:00,62.7,60.0,30.11,North,0,0.0,0.0,91,0.00,,,0.00,0,HR-IXPWINDi_r2_v1.2.,2013-06-10 08:15:00,
2013-06-10 04:20:00,62.7,60.0,30.11,North,0,0.0,0.0,91,0.00,,,0.00,0,HR-IXPWINDi_r2_v1.2.,2013-06-10 08:20:00,
2013-06-10 04:26:00,62.6,59.9,30.11,North,0,0.0,0.0,91,0.00,,,0.00,0,HR-IXPWINDi_r2_v1.2.,2013-06-10 08:26:00,
2013-06-10 04:31:00,62.6,59.9,30.11,North,0,0.0,0.0,91,0.00,,,0.00,0,HR-IXPWINDi_r2_v1.2.,2013-06-10 08:31:00,
2013-06-10 04:36:00,62.6,59.9,30.10,North,0,0.0,0.0,91,0.00,,,0.00,0,HR-IXPWINDi_r2_v1.2.,2013-06-10 08:36:00,
2013-06-10 04:41:00,62.6,59.9,30.10,North,0,0.0,0.0,91,0.00,,,0.00,0,HR-IXPWINDi_r2_v1.2.,2013-06-10 08:41:00,
2013-06-10 04:47:00,62.6,59.9,30.10,North,0,0.0,0.0,91,0.00,,,0.00,0,HR-IXPWINDi_r2_v1.2.,2013-06-10 08:47:00,
2013-06-10 04:52:00,62.6,59.9,30.10,North,0,0.0,0.0,91,0.00,,,0.00,0,HR-IXPWINDi_r2_v1.2.,2013-06-10 08:52:00,
2013-06-10 04:57:00,62.6,59.9,30.10,North,0,0.0,0.0,91,0.00,,,0.00,0,HR-IXPWINDi_r2_v1.2.,2013-06-10 08:57:00,
2013-06-10 05:03:00,62.6,59.9,30.10,North,0,0.0,0.0,91,0.00,,,0.00,0,HR-IXPWINDi_r2_v1.2.,2013-06-10 09:03:00,
2013-06-10 05:08:00,62.6,59.9,30.10,North,0,0.0,0.0,91,0.00,,,0.00,0,HR-IXPWINDi_r2_v1.2.,2013-06-10 09:08:00,
2013-06-10 05:13:00,62.6,59.9,30.10,North,0,0.0,0.0,91,0.00,,,0.00,0,HR-IXPWINDi_r2_v1.2.,2013-06-10 09:13:00,
2013-06-10 05:19:00,62.6,59.9,30.10,North,0,0.0,0.0,91,0.00,,,0.00,0,HR-IXPWINDi_r2_v1.2.,2013-06-10 09:19:00,
2013-06-10 05:24:00,62.6,59.9,30.10,North,0,0.0,0.0,91,0.00,,,0.00,0,HR-IXPWINDi_r2_v1.2.,2013-06-10 09:24:00,
2013-06-10 05:29:00,62.6,59.9,30.10,North,0,0.0,0.0,91,0.00,,,0.00,0,HR-IXPWINDi_r2_v1.2.,2013-06-10 09:29:00,
2013-06-10 05:34:00,62.6,59.9,30.10,North,0,0.0,0.0,91,0.00,,,0.00,0,HR-IXPWINDi_r2_v1.2.,2013-06-10 09:34:00,
2013-06-10 05:39:00,62.4,59.7,30.10,North,0,0.0,0.0,91,0.00,,,0.00,0,HR-IXPWINDi_r2_v1.2.,2013-06-10 09:39:00,
2013-06-10 05:44:00,62.6,59.9,30.10,North,0,0.0,0.0,91,0.00,,,0.00,5,HR-IXPWINDi_r2_v1.2.,2013-06-10 09:44:00,
2013-06-10 05:49:00,62.6,59.9,30.10,North,0,0.0,0.0,91,0.00,,,0.00,7,HR-IXPWINDi_r2_v1.2.,2013-06-10 09:49:00,
2013-06-10 05:55:00,62.6,59.9,30.10,North,0,0.0,0.0,91,0.00,,,0.00,9,HR-IXPWINDi_r2_v1.2.,2013-06-10 09:55:00,
2013-06-10 06:00:00,62.6,59.9,30.10,North,0,0.0,0.0,91,0.00,,,0.00,12,HR-IXPWINDi_r2_v1.2.,2013-06-10 10:00:00,
2013-06-10 06:05:00,62.7,60.0,30.11,North,0,0.0,0.0,91,0.00,,,0.00,14,HR-IXPWINDi_r2_v1.2.,2013-06-10 10:05:00,
2013-06-10 06:10:00,62.7,60.0,30.11,North,0,0.0,0.0,91,0.00,,,0.00,16,HR-IXPWINDi_r2_v1.2.,2013-06-10 10:10:00,
2013-06-10 06:15:00,62.7,60.0,30.11,North,0,0.0,0.0,91,0.00,,,0.00,16,HR-IXPWINDi_r2_v1.2.,2013-06-10 10:15:00,
2013-06-10 06:21:00,62.9,60.2,30.11,North,0,0.0,0.0,91,0.00,,,0.00,18,HR-IXPWINDi_r2_v1.2.,2013-06-10 10:21:00,
2013-06-10 06:26:00,63.1,60.4,30.11,North,0,0.0,0.0,91,0.00,,,0.00,18,HR-IXPWINDi_r2_v1.2.,2013-06-10 10:26:00,
2013-06-10 06:31:00,63.2,60.5,30.11,North,0,0.0,0.0,91,0.00,,,0.00,18,HR-IXPWINDi_r2_v1.2.,2013-06-10 10:31:00,
2013-06-10 06:36:00,63.2,60.5,30.10,North,0,0.0,0.0,91,0.00,,,0.00,19,HR-IXPWINDi_r2_v1.2.,2013-06-10 10:36:00,
2013-06-10 06:42:00,63.4,60.3,30.10,North,0,0.0,0.0,90,0.00,,,0.00,23,HR-IXPWINDi_r2_v1.2.,2013-06-10 10:42:00,
2013-06-10 06:47:00,63.5,60.4,30.10,North,0,0.0,0.0,90,0.00,,,0.00,23,HR-IXPWINDi_r2_v1.2.,2013-06-10 10:47:00,
2013-06-10 06:52:00,63.7,60.6,30.10,North,0,0.0,0.0,90,0.00,,,0.00,28,HR-IXPWINDi_r2_v1.2.,2013-06-10 10:52:00,
2013-06-10 06:57:00,63.9,60.8,30.10,North,0,0.0,0.0,90,0.00,,,0.00,30,HR-IXPWINDi_r2_v1.2.,2013-06-10 10:57:00,
2013-06-10 07:03:00,63.9,60.8,30.10,North,0,0.0,0.0,90,0.00,,,0.00,33,HR-IXPWINDi_r2_v1.2.,2013-06-10 11:03:00,
2013-06-10 07:08:00,64.0,60.9,30.10,North,0,0.0,0.0,90,0.00,,,0.00,32,HR-IXPWINDi_r2_v1.2.,2013-06-10 11:08:00,
2013-06-10 07:13:00,64.2,61.1,30.10,North,0,0.0,0.0,90,0.00,,,0.00,30,HR-IXPWINDi_r2_v1.2.,2013-06-10 11:13:00,
2013-06-10 07:18:00,64.3,60.9,30.10,North,0,0.0,0.0,89,0.00,,,0.00,32,HR-IXPWINDi_r2_v1.2.,2013-06-10 11:18:00,
2013-06-10 07:23:00,64.5,61.1,30.09,North,0,0.0,0.0,89,0.00,,,0.00,33,HR-IXPWINDi_r2_v1.2.,2013-06-10 11:23:00,
2013-06-10 07:28:00,64.8,61.4,30.09,North,0,0.0,0.0,89,0.00,,,0.00,39,HR-IXPWINDi_r2_v1.2.,2013-06-10 11:28:00,
2013-06-10 07:34:00,65.0,61.3,30.09,North,0,0.0,0.0,88,0.00,,,0.00,35,HR-IXPWINDi_r2_v1.2.,2013-06-10 11:34:00,
2013-06-10 07:39:00,65.2,61.5,30.09,North,0,0.0,0.0,88,0.00,,,0.00,39,HR-IXPWINDi_r2_v1.2.,2013-06-10 11:39:00,
2013-06-10 07:44:00,65.5,61.5,30.09,North,0,0.0,0.0,87,0.00,,,0.00,37,HR-IXPWINDi_r2_v1.2.,2013-06-10 11:44:00,
2013-06-10 07:49:00,65.6,61.6,30.09,North,0,0.0,0.0,87,0.00,,,0.00,32,HR-IXPWINDi_r2_v1.2.,2013-06-10 11:49:00,
2013-06-10 07:54:00,65.8,61.8,30.09,North,0,0.0,0.0,87,0.00,,,0.00,30,HR-IXPWINDi_r2_v1.2.,2013-06-10 11:54:00,
2013-06-10 07:59:00,65.8,61.8,30.09,North,0,0.0,0.0,87,0.00,,,0.00,33,HR-IXPWINDi_r2_v1.2.,2013-06-10 11:59:00,
2013-06-10 08:05:00,66.0,61.6,30.09,North,0,0.0,0.0,86,0.00,,,0.00,44,HR-IXPWINDi_r2_v1.2.,2013-06-10 12:05:00,
2013-06-10 08:10:00,66.3,61.9,30.09,WNW,282,0.0,0.0,86,0.00,,,0.00,49,HR-IXPWINDi_r2_v1.2.,2013-06-10 12:10:00,
2013-06-10 08:15:00,66.6,62.2,30.09,WNW,282,0.0,0.0,86,0.00,,,0.00,63,HR-IXPWINDi_r2_v1.2.,2013-06-10 12:15:00,
2013-06-10 08:20:00,66.9,62.5,30.09,WNW,282,0.0,0.0,86,0.00,,,0.00,88,HR-IXPWINDi_r2_v1.2.,2013-06-10 12:20:00,
2013-06-10 08:25:00,67.1,62.7,30.09,WNW,282,0.0,0.0,86,0.00,,,0.00,90,HR-IXPWINDi_r2_v1.2.,2013-06-10 12:25:00,
2013-06-10 08:30:00,67.3,62.9,30.09,WNW,282,0.0,0.0,86,0.00,,,0.00,74,HR-IXPWINDi_r2_v1.2.,2013-06-10 12:30:00,
2013-06-10 08:36:00,67.4,63.0,30.09,WNW,282,0.0,0.0,86,0.00,,,0.00,81,HR-IXPWINDi_r2_v1.2.,2013-06-10 12:36:00,
2013-06-10 08:41:00,67.6,63.2,30.09,WNW,282,0.0,1.0,86,0.00,,,0.00,72,HR-IXPWINDi_r2_v1.2.,2013-06-10 12:41:00,
2013-06-10 08:46:00,67.8,63.4,30.09,WNW,282,0.0,1.0,86,0.00,,,0.00,97,HR-IXPWINDi_r2_v1.2.,2013-06-10 12:46:00,
2013-06-10 08:51:00,67.9,63.5,30.10,WNW,282,0.0,0.0,86,0.00,,,0.00,90,HR-IXPWINDi_r2_v1.2.,2013-06-10 12:51:00,
2013-06-10 08:56:00,68.3,63.6,30.10,West,280,0.0,0.0,85,0.00,,,0.00,95,HR-IXPWINDi_r2_v1.2.,2013-06-10 12:56:00,
2013-06-10 09:01:00,68.4,63.3,30.10,WSW,258,0.0,1.0,84,0.00,,,0.00,104,HR-IXPWINDi_r2_v1.2.,2013-06-10 13:01:00,
2013-06-10 09:06:00,68.4,63.3,30.10,WSW,257,0.0,3.0,84,0.00,,,0.00,116,HR-IXPWINDi_r2_v1.2.,2013-06-10 13:06:00,
2013-06-10 09:12:00,68.6,63.5,30.10,WSW,257,1.0,3.0,84,0.00,,,0.00,104,HR-IXPWINDi_r2_v1.2.,2013-06-10 13:12:00,
2013-06-10 09:17:00,68.6,63.5,30.10,WSW,257,0.0,2.0,84,0.00,,,0.00,128,HR-IXPWINDi_r2_v1.2.,2013-06-10 13:17:00,
2013-06-10 09:22:00,68.6,63.5,30.09,WSW,257,0.0,2.0,84,0.00,,,0.00,148,HR-IXPWINDi_r2_v1.2.,2013-06-10 13:22:00,
2013-06-10 09:27:00,68.6,63.8,30.09,WSW,257,0.0,1.0,85,0.00,,,0.00,148,HR-IXPWINDi_r2_v1.2.,2013-06-10 13:27:00,
2013-06-10 09:32:00,68.9,64.1,30.09,WSW,257,0.0,0.0,85,0.00,,,0.00,125,HR-IXPWINDi_r2_v1.2.,2013-06-10 13:32:00,
2013-06-10 09:38:00,68.8,64.0,30.10,WSW,257,0.0,0.0,85,0.00,,,0.00,125,HR-IXPWINDi_r2_v1.2.,2013-06-10 13:38:00,
2013-06-10 09:43:00,68.8,64.0,30.10,WSW,257,0.0,0.0,85,0.00,,,0.00,135,HR-IXPWINDi_r2_v1.2.,2013-06-10 13:43:00,
2013-06-10 09:48:00,68.8,63.7,30.10,WSW,256,0.0,2.0,84,0.00,,,0.00,120,HR-IXPWINDi_r2_v1.2.,2013-06-10 13:48:00,
2013-06-10 09:53:00,68.8,64.0,30.09,WSW,256,0.0,2.0,85,0.00,,,0.00,125,HR-IXPWINDi_r2_v1.2.,2013-06-10 13:53:00,
2013-06-10 09:58:00,68.9,64.1,30.09,WSW,256,0.0,0.0,85,0.00,,,0.00,132,HR-IXPWINDi_r2_v1.2.,2013-06-10 13:58:00,
2013-06-10 10:04:00,69.1,64.3,30.09,WSW,256,0.0,0.0,85,0.00,,,0.00,153,HR-IXPWINDi_r2_v1.2.,2013-06-10 14:04:00,
2013-06-10 10:09:00,69.1,64.0,30.08,WSW,254,0.0,0.0,84,0.00,,,0.00,153,HR-IXPWINDi_r2_v1.2.,2013-06-10 14:09:00,
2013-06-10 10:14:00,69.1,64.0,30.08,WSW,253,0.0,1.0,84,0.00,,,0.00,132,HR-IXPWINDi_r2_v1.2.,2013-06-10 14:14:00,
2013-06-10 10:19:00,69.3,64.2,30.08,WSW,251,1.0,2.0,84,0.00,,,0.00,151,HR-IXPWINDi_r2_v1.2.,2013-06-10 14:19:00,
2013-06-10 10:24:00,69.3,64.2,30.08,SW,236,0.0,2.0,84,0.00,,,0.00,167,HR-IXPWINDi_r2_v1.2.,2013-06-10 14:24:00,
2013-06-10 10:29:00,69.4,64.3,30.08,SW,236,0.0,2.0,84,0.00,,,0.00,183,HR-IXPWINDi_r2_v1.2.,2013-06-10 14:29:00,
2013-06-10 10:34:00,69.6,64.8,30.08,SW,236,0.0,0.0,85,0.00,,,0.00,174,HR-IXPWINDi_r2_v1.2.,2013-06-10 14:34:00,
2013-06-10 10:39:00,69.8,65.0,30.08,SW,236,0.0,0.0,85,0.00,,,0.00,183,HR-IXPWINDi_r2_v1.2.,2013-06-10 14:39:00,
2013-06-10 10:44:00,69.8,64.7,30.08,SW,236,0.0,0.0,84,0.00,,,0.00,183,HR-IXPWINDi_r2_v1.2.,2013-06-10 14:44:00,
2013-06-10 10:49:00,69.8,64.3,30.08,SSW,195,1.0,2.0,83,0.00,,,0.00,204,HR-IXPWINDi_r2_v1.2.,2013-06-10 14:49:00,
2013-06-10 10:55:00,69.8,64.0,30.08,SSW,193,2.0,3.0,82,0.00,,,0.00,222,HR-IXPWINDi_r2_v1.2.,2013-06-10 14:55:00,
2013-06-10 11:00:00,69.9,64.4,30.08,SSW,192,2.0,3.0,83,0.00,,,0.00,220,HR-IXPWINDi_r2_v1.2.,2013-06-10 15:00:00,
2013-06-10 11:05:00,70.1,64.3,30.07,South,191,1.0,3.0,82,0.00,,,0.00,213,HR-IXPWINDi_r2_v1.2.,2013-06-10 15:05:00,
2013-06-10 11:10:00,70.1,64.3,30.07,South,191,0.0,3.0,82,0.00,,,0.00,171,HR-IXPWINDi_r2_v1.2.,2013-06-10 15:10:00,
2013-06-10 11:15:00,70.1,63.9,30.07,NW,306,0.0,2.0,81,0.00,,,0.00,171,HR-IXPWINDi_r2_v1.2.,2013-06-10 15:15:00,
2013-06-10 11:20:00,70.1,63.9,30.08,WSW,248,2.0,3.0,81,0.00,,,0.00,197,HR-IXPWINDi_r2_v1.2.,2013-06-10 15:20:00,
2013-06-10 11:26:00,70.3,64.5,30.08,WSW,248,1.0,3.0,82,0.00,,,0.00,204,HR-IXPWINDi_r2_v1.2.,2013-06-10 15:26:00,
2013-06-10 11:32:00,70.3,64.1,30.08,South,188,2.0,3.0,81,0.00,,,0.00,157,HR-IXPWINDi_r2_v1.2.,2013-06-10 15:32:00,
2013-06-10 11:37:00,70.3,63.8,30.08,South,186,0.0,3.0,80,0.00,,,0.00,151,HR-IXPWINDi_r2_v1.2.,2013-06-10 15:37:00,
2013-06-10 11:42:00,70.4,64.2,30.08,South,186,0.0,3.0,81,0.00,,,0.00,107,HR-IXPWINDi_r2_v1.2.,2013-06-10 15:42:00,
2013-06-10 11:47:00,70.3,64.1,30.08,South,185,2.0,3.0,81,0.00,,,0.00,95,HR-IXPWINDi_r2_v1.2.,2013-06-10 15:47:00,
2013-06-10 11:53:00,70.3,64.5,30.08,South,185,2.0,3.0,82,0.00,,,0.00,106,HR-IXPWINDi_r2_v1.2.,2013-06-10 15:53:00,
2013-06-10 11:58:00,70.1,64.6,30.08,South,185,0.0,3.0,83,0.00,,,0.00,93,HR-IXPWINDi_r2_v1.2.,2013-06-10 15:58:00,
2013-06-10 12:03:00,69.9,64.4,30.08,South,185,3.0,3.0,83,0.00,,,0.00,99,HR-IXPWINDi_r2_v1.2.,2013-06-10 16:03:00,
2013-06-10 12:08:00,69.8,64.7,30.07,South,185,2.0,3.0,84,0.00,,,0.00,88,HR-IXPWINDi_r2_v1.2.,2013-06-10 16:08:00,
2013-06-10 12:13:00,69.8,65.0,30.07,South,185,0.0,3.0,85,0.00,,,0.00,88,HR-IXPWINDi_r2_v1.2.,2013-06-10 16:13:00,
2013-06-10 12:19:00,69.8,65.4,30.07,South,185,2.0,2.0,86,0.00,,,0.00,109,HR-IXPWINDi_r2_v1.2.,2013-06-10 16:19:00,
2013-06-10 12:24:00,69.6,65.2,30.07,South,185,2.0,2.0,86,0.00,,,0.00,104,HR-IXPWINDi_r2_v1.2.,2013-06-10 16:24:00,
2013-06-10 12:29:00,69.6,65.2,30.07,South,184,2.0,3.0,86,0.00,,,0.00,99,HR-IXPWINDi_r2_v1.2.,2013-06-10 16:29:00,
2013-06-10 12:34:00,69.6,65.5,30.07,South,184,1.0,3.0,87,0.00,,,0.00,69,HR-IXPWINDi_r2_v1.2.,2013-06-10 16:34:00,
2013-06-10 12:40:00,69.4,65.3,30.06,South,182,3.0,3.0,87,0.00,,,0.00,60,HR-IXPWINDi_r2_v1.2.,2013-06-10 16:40:00,
2013-06-10 12:45:00,69.3,65.2,30.06,South,182,2.0,3.0,87,0.00,,,0.00,76,HR-IXPWINDi_r2_v1.2.,2013-06-10 16:45:00,
2013-06-10 12:50:00,69.1,65.3,30.05,South,181,1.0,3.0,88,0.00,,,0.00,67,HR-IXPWINDi_r2_v1.2.,2013-06-10 16:50:00,
2013-06-10 12:55:00,68.9,65.5,30.05,South,179,1.0,3.0,89,0.00,,,0.00,79,HR-IXPWINDi_r2_v1.2.,2013-06-10 16:55:00,
2013-06-10 13:00:00,68.8,65.4,30.05,South,171,2.0,5.0,89,0.00,,,0.00,86,HR-IXPWINDi_r2_v1.2.,2013-06-10 17:00:00,
2013-06-10 13:06:00,68.6,65.2,30.05,South,172,1.0,5.0,89,0.00,,,0.00,46,HR-IXPWINDi_r2_v1.2.,2013-06-10 17:06:00,
2013-06-10 13:11:00,68.6,65.2,30.05,South,171,1.0,3.0,89,0.00,,,0.00,28,HR-IXPWINDi_r2_v1.2.,2013-06-10 17:11:00,
2013-06-10 13:17:00,68.3,64.9,30.05,SSE,160,4.0,5.0,89,0.00,,,0.00,30,HR-IXPWINDi_r2_v1.2.,2013-06-10 17:17:00,
2013-06-10 13:22:00,68.3,65.2,30.05,South,176,1.0,5.0,90,0.00,,,0.00,46,HR-IXPWINDi_r2_v1.2.,2013-06-10 17:22:00,
2013-06-10 13:27:00,67.9,64.8,30.05,South,176,3.0,5.0,90,0.00,,,0.00,33,HR-IXPWINDi_r2_v1.2.,2013-06-10 17:27:00,
2013-06-10 13:32:00,67.6,64.8,30.05,SSE,151,1.0,5.0,91,0.00,,,0.00,40,HR-IXPWINDi_r2_v1.2.,2013-06-10 17:32:00,
2013-06-10 13:38:00,67.6,64.8,30.04,SSE,158,1.0,5.0,91,0.00,,,0.00,88,HR-IXPWINDi_r2_v1.2.,2013-06-10 17:38:00,
2013-06-10 13:43:00,67.4,64.6,30.04,South,169,1.0,7.0,91,0.00,,,0.00,93,HR-IXPWINDi_r2_v1.2.,2013-06-10 17:43:00,
2013-06-10 13:48:00,67.3,64.5,30.04,SSE,164,3.0,7.0,91,0.00,,,0.00,51,HR-IXPWINDi_r2_v1.2.,2013-06-10 17:48:00,
2013-06-10 13:54:00,67.3,64.8,30.03,SSE,161,2.0,6.0,92,0.00,,,0.00,106,HR-IXPWINDi_r2_v1.2.,2013-06-10 17:54:00,
2013-06-10 13:59:00,67.3,64.8,30.03,SSE,160,3.0,6.0,92,0.00,,,0.00,62,HR-IXPWINDi_r2_v1.2.,2013-06-10 17:59:00,
2013-06-10 14:04:00,67.1,64.6,30.03,South,174,3.0,6.0,92,0.00,,,0.00,39,HR-IXPWINDi_r2_v1.2.,2013-06-10 18:04:00,
2013-06-10 14:09:00,67.1,64.6,30.02,SSE,148,3.0,6.0,92,0.00,,,0.00,72,HR-IXPWINDi_r2_v1.2.,2013-06-10 18:09:00,
2013-06-10 14:15:00,67.1,64.6,30.02,SSE,157,1.0,7.0,92,0.00,,,0.00,74,HR-IXPWINDi_r2_v1.2.,2013-06-10 18:15:00,
2013-06-10 14:20:00,67.1,64.6,30.02,SSE,165,2.0,7.0,92,0.00,,,0.00,63,HR-IXPWINDi_r2_v1.2.,2013-06-10 18:20:00,
2013-06-10 14:25:00,67.1,64.6,30.02,SSE,164,1.0,5.0,92,0.00,,,0.00,44,HR-IXPWINDi_r2_v1.2.,2013-06-10 18:25:00,
2013-06-10 14:30:00,66.9,64.4,30.02,SSE,164,1.0,5.0,92,0.00,,,0.00,42,HR-IXPWINDi_r2_v1.2.,2013-06-10 18:30:00,
2013-06-10 14:35:00,66.9,64.4,30.02,SSE,162,2.0,7.0,92,0.00,,,0.00,67,HR-IXPWINDi_r2_v1.2.,2013-06-10 18:35:00,
2013-06-10 14:40:00,66.9,64.4,30.02,South,174,0.0,7.0,92,0.00,,,0.00,33,HR-IXPWINDi_r2_v1.2.,2013-06-10 18:40:00,
2013-06-10 14:45:00,66.9,64.4,30.02,SSE,167,1.0,6.0,92,0.00,,,0.00,58,HR-IXPWINDi_r2_v1.2.,2013-06-10 18:45:00,
2013-06-10 14:50:00,66.9,64.4,30.01,SSW,193,1.0,6.0,92,0.00,,,0.00,48,HR-IXPWINDi_r2_v1.2.,2013-06-10 18:50:00,
2013-06-10 14:55:00,66.9,64.4,30.01,South,189,0.0,5.0,92,0.00,,,0.00,44,HR-IXPWINDi_r2_v1.2.,2013-06-10 18:55:00,
2013-06-10 15:00:00,66.9,64.4,30.01,ESE,116,4.0,6.0,92,0.00,,,0.00,63,HR-IXPWINDi_r2_v1.2.,2013-06-10 19:00:00,
2013-06-10 15:05:00,66.9,64.4,30.01,SSE,151,0.0,6.0,92,0.00,,,0.00,53,HR-IXPWINDi_r2_v1.2.,2013-06-10 19:05:00,
2013-06-10 15:10:00,66.8,64.3,30.01,SSE,155,0.0,6.0,92,0.00,,,0.00,35,HR-IXPWINDi_r2_v1.2.,2013-06-10 19:10:00,
2013-06-10 15:16:00,66.6,64.1,30.01,SSE,155,3.0,6.0,92,0.00,,,0.00,51,HR-IXPWINDi_r2_v1.2.,2013-06-10 19:16:00,
2013-06-10 15:21:00,66.6,64.1,30.00,SSE,158,4.0,5.0,92,0.00,,,0.00,39,HR-IXPWINDi_r2_v1.2.,2013-06-10 19:21:00,
2013-06-10 15:27:00,66.4,63.9,30.00,SE,143,1.0,6.0,92,0.00,,,0.00,67,HR-IXPWINDi_r2_v1.2.,2013-06-10 19:27:00,
2013-06-10 15:32:00,66.3,63.8,30.00,South,174,1.0,7.0,92,0.00,,,0.00,72,HR-IXPWINDi_r2_v1.2.,2013-06-10 19:32:00,
2013-06-10 15:37:00,66.3,64.1,29.99,SSE,154,2.0,7.0,93,0.00,,,0.00,74,HR-IXPWINDi_r2_v1.2.,2013-06-10 19:37:00,
2013-06-10 15:42:00,66.3,64.1,29.99,SSE,165,3.0,7.0,93,0.00,,,0.00,44,HR-IXPWINDi_r2_v1.2.,2013-06-10 19:42:00,
2013-06-10 15:47:00,66.1,63.9,29.99,SSE,157,1.0,6.0,93,0.00,,,0.00,44,HR-IXPWINDi_r2_v1.2.,2013-06-10 19:47:00,
2013-06-10 15:52:00,66.1,63.9,29.98,SSE,151,3.0,7.0,93,0.00,,,0.00,44,HR-IXPWINDi_r2_v1.2.,2013-06-10 19:52:00,
2013-06-10 15:57:00,66.1,63.9,29.98,SSE,168,1.0,7.0,93,0.00,,,0.00,55,HR-IXPWINDi_r2_v1.2.,2013-06-10 19:57:00,
2013-06-10 16:03:00,66.1,63.9,29.98,SSE,164,1.0,5.0,93,0.00,,,0.00,48,HR-IXPWINDi_r2_v1.2.,2013-06-10 20:03:00,
2013-06-10 16:08:00,66.1,63.9,29.97,SSE,162,2.0,10.0,93,0.00,,,0.00,79,HR-IXPWINDi_r2_v1.2.,2013-06-10 20:08:00,
2013-06-10 16:13:00,66.0,63.9,29.97,SSE,152,2.0,10.0,93,0.00,,,0.00,77,HR-IXPWINDi_r2_v1.2.,2013-06-10 20:13:00,
2013-06-10 16:18:00,66.0,63.9,29.97,SSE,167,2.0,6.0,93,0.00,,,0.00,77,HR-IXPWINDi_r2_v1.2.,2013-06-10 20:18:00,
2013-06-10 16:23:00,66.1,63.9,29.97,SSE,162,0.0,6.0,93,0.00,,,0.00,70,HR-IXPWINDi_r2_v1.2.,2013-06-10 20:23:00,
2013-06-10 16:29:00,66.1,63.9,29.97,SSE,152,5.0,7.0,93,0.00,,,0.00,63,HR-IXPWINDi_r2_v1.2.,2013-06-10 20:29:00,
2013-06-10 16:34:00,66.1,63.9,29.97,SSE,161,2.0,7.0,93,0.00,,,0.00,69,HR-IXPWINDi_r2_v1.2.,2013-06-10 20:34:00,
2013-06-10 16:39:00,66.1,63.9,29.96,SSE,160,3.0,5.0,93,0.00,,,0.00,44,HR-IXPWINDi_r2_v1.2.,2013-06-10 20:39:00,
2013-06-10 16:44:00,66.1,63.9,29.96,SSE,160,3.0,5.0,93,0.00,,,0.00,49,HR-IXPWINDi_r2_v1.2.,2013-06-10 20:44:00,
2013-06-10 16:49:00,66.1,63.9,29.96,South,175,0.0,5.0,93,0.00,,,0.00,44,HR-IXPWINDi_r2_v1.2.,2013-06-10 20:49:00,
2013-06-10 16:55:00,66.1,63.9,29.96,SSE,161,4.0,5.0,93,0.00,,,0.00,25,HR-IXPWINDi_r2_v1.2.,2013-06-10 20:55:00,
2013-06-10 17:00:00,66.0,63.9,29.96,SSE,162,4.0,5.0,93,0.00,,,0.00,18,HR-IXPWINDi_r2_v1.2.,2013-06-10 21:00:00,
2013-06-10 17:05:00,66.0,63.9,29.96,South,176,1.0,6.0,93,0.00,,,0.00,18,HR-IXPWINDi_r2_v1.2.,2013-06-10 21:05:00,
2013-06-10 17:10:00,66.0,63.9,29.96,South,174,2.0,6.0,93,0.00,,,0.00,11,HR-IXPWINDi_r2_v1.2.,2013-06-10 21:10:00,
2013-06-10 17:15:00,65.8,63.7,29.96,SSW,200,0.0,7.0,93,0.00,,,0.00,18,HR-IXPWINDi_r2_v1.2.,2013-06-10 21:15:00,
2013-06-10 17:20:00,65.6,63.5,29.95,SSE,151,0.0,7.0,93,0.00,,,0.00,14,HR-IXPWINDi_r2_v1.2.,2013-06-10 21:20:00,
2013-06-10 17:26:00,65.8,63.7,29.95,SSE,151,0.0,6.0,93,0.00,,,0.00,26,HR-IXPWINDi_r2_v1.2.,2013-06-10 21:26:00,
2013-06-10 17:31:00,65.6,63.8,29.95,SSE,151,2.0,5.0,94,0.00,,,0.00,35,HR-IXPWINDi_r2_v1.2.,2013-06-10 21:31:00,
2013-06-10 17:36:00,65.8,64.0,29.94,SSE,151,0.0,5.0,94,0.00,,,0.00,28,HR-IXPWINDi_r2_v1.2.,2013-06-10 21:36:00,
2013-06-10 17:41:00,65.6,63.8,29.94,SSE,152,0.0,4.0,94,0.00,,,0.00,25,HR-IXPWINDi_r2_v1.2.,2013-06-10 21:41:00,
2013-06-10 17:47:00,65.6,63.8,29.94,SE,136,2.0,5.0,94,0.00,,,0.00,25,HR-IXPWINDi_r2_v1.2.,2013-06-10 21:47:00,
2013-06-10 17:52:00,65.5,63.7,29.93,SSE,150,0.0,5.0,94,0.00,,,0.00,26,HR-IXPWINDi_r2_v1.2.,2013-06-10 21:52:00,
2013-06-10 17:57:00,65.6,63.8,29.93,SSE,151,0.0,5.0,94,0.00,,,0.00,23,HR-IXPWINDi_r2_v1.2.,2013-06-10 21:57:00,
2013-06-10 18:02:00,65.6,63.8,29.93,South,178,2.0,7.0,94,0.00,,,0.00,19,HR-IXPWINDi_r2_v1.2.,2013-06-10 22:02:00,
2013-06-10 18:07:00,65.6,63.8,29.92,SSW,206,2.0,7.0,94,0.00,,,0.00,21,HR-IXPWINDi_r2_v1.2.,2013-06-10 22:07:00,
2013-06-10 18:13:00,65.6,63.8,29.92,South,186,1.0,5.0,94,0.00,,,0.00,19,HR-IXPWINDi_r2_v1.2.,2013-06-10 22:13:00,
2013-06-10 18:18:00,65.3,63.5,29.92,SSE,160,2.0,3.0,94,0.00,,,0.00,9,HR-IXPWINDi_r2_v1.2.,2013-06-10 22:18:00,
2013-06-10 18:23:00,65.3,63.5,29.92,SSW,209,2.0,6.0,94,0.00,,,0.00,9,HR-IXPWINDi_r2_v1.2.,2013-06-10 22:23:00,
2013-06-10 18:28:00,65.2,63.4,29.92,NW,304,2.0,6.0,94,0.00,,,0.00,11,HR-IXPWINDi_r2_v1.2.,2013-06-10 22:28:00,
2013-06-10 18:33:00,65.2,63.4,29.92,SSE,152,3.0,3.0,94,0.00,,,0.00,9,HR-IXPWINDi_r2_v1.2.,2013-06-10 22:33:00,
2013-06-10 18:39:00,65.0,63.2,29.92,SSE,152,1.0,4.0,94,0.00,,,0.00,7,HR-IXPWINDi_r2_v1.2.,2013-06-10 22:39:00,
2013-06-10 18:44:00,65.0,63.2,29.92,SSE,152,0.0,4.0,94,0.00,,,0.00,0,HR-IXPWINDi_r2_v1.2.,2013-06-10 22:44:00,
2013-06-10 18:49:00,65.0,63.2,29.92,SSW,213,1.0,6.0,94,0.00,,,0.00,0,HR-IXPWINDi_r2_v1.2.,2013-06-10 22:49:00,
2013-06-10 18:54:00,65.0,63.2,29.92,SSW,213,0.0,6.0,94,0.00,,,0.00,0,HR-IXPWINDi_r2_v1.2.,2013-06-10 22:54:00,
2013-06-10 18:59:00,65.0,63.2,29.92,SSE,161,2.0,4.0,94,0.00,,,0.00,0,HR-IXPWINDi_r2_v1.2.,2013-06-10 22:59:00,
2013-06-10 19:04:00,64.8,63.0,29.92,SSE,160,2.0,4.0,94,0.00,,,0.00,0,HR-IXPWINDi_r2_v1.2.,2013-06-10 23:04:00,
2013-06-10 19:09:00,64.8,63.0,29.92,SSW,198,1.0,3.0,94,0.00,,,0.00,0,HR-IXPWINDi_r2_v1.2.,2013-06-10 23:09:00,
2013-06-10 19:15:00,64.7,62.9,29.92,SW,234,3.0,5.0,94,0.00,,,0.00,0,HR-IXPWINDi_r2_v1.2.,2013-06-10 23:15:00,
2013-06-10 19:20:00,64.7,62.9,29.91,SW,234,0.0,5.0,94,0.00,,,0.00,0,HR-IXPWINDi_r2_v1.2.,2013-06-10 23:20:00,
2013-06-10 19:25:00,64.8,63.0,29.91,WNW,292,0.0,3.0,94,0.00,,,0.00,0,HR-IXPWINDi_r2_v1.2.,2013-06-10 23:25:00,
2013-06-10 19:30:00,64.7,62.9,29.91,West,268,0.0,5.0,94,0.00,,,0.00,0,HR-IXPWINDi_r2_v1.2.,2013-06-10 23:30:00,
2013-06-10 19:36:00,64.7,62.9,29.91,West,267,0.0,5.0,94,0.00,,,0.00,0,HR-IXPWINDi_r2_v1.2.,2013-06-10 23:36:00,
2013-06-10 19:42:00,64.7,62.9,29.91,NW,304,0.0,3.0,94,0.00,,,0.00,0,HR-IXPWINDi_r2_v1.2.,2013-06-10 23:42:00,
2013-06-10 19:47:00,64.7,62.9,29.91,SW,229,2.0,3.0,94,0.00,,,0.00,0,HR-IXPWINDi_r2_v1.2.,2013-06-10 23:47:00,
2013-06-10 19:52:00,64.7,62.9,29.90,West,261,0.0,3.0,94,0.00,,,0.00,0,HR-IXPWINDi_r2_v1.2.,2013-06-10 23:52:00,
2013-06-10 19:57:00,64.5,62.7,29.90,West,263,0.0,3.0,94,0.00,,,0.00,0,HR-IXPWINDi_r2_v1.2.,2013-06-10 23:57:00,
2013-06-10 20:03:00,64.5,62.7,29.90,WNW,289,1.0,5.0,94,0.00,,,0.00,0,HR-IXPWINDi_r2_v1.2.,2013-06-11 00:03:00,
2013-06-10 20:08:00,64.7,62.9,29.90,SSW,199,1.0,5.0,94,0.00,,,0.00,0,HR-IXPWINDi_r2_v1.2.,2013-06-11 00:08:00,
2013-06-10 20:13:00,64.5,62.7,29.90,ESE,120,0.0,3.0,94,0.00,,,0.00,0,HR-IXPWINDi_r2_v1.2.,2013-06-11 00:13:00,
2013-06-10 20:18:00,64.5,62.7,29.90,East,80,0.0,3.0,94,0.00,,,0.00,0,HR-IXPWINDi_r2_v1.2.,2013-06-11 00:18:00,
2013-06-10 20:24:00,64.5,62.7,29.90,South,181,0.0,3.0,94,0.00,,,0.00,0,HR-IXPWINDi_r2_v1.2.,2013-06-11 00:24:00,
2013-06-10 20:29:00,64.5,62.7,29.90,South,178,0.0,3.0,94,0.00,,,0.00,0,HR-IXPWINDi_r2_v1.2.,2013-06-11 00:29:00,
2013-06-10 20:34:00,64.5,62.7,29.90,SSW,192,0.0,3.0,94,0.00,,,0.00,0,HR-IXPWINDi_r2_v1.2.,2013-06-11 00:34:00,
2013-06-10 20:39:00,64.5,62.7,29.88,South,188,0.0,3.0,94,0.00,,,0.00,0,HR-IXPWINDi_r2_v1.2.,2013-06-11 00:39:00,
2013-06-10 20:44:00,64.3,62.5,29.88,South,188,0.0,2.0,94,0.00,,,0.00,0,HR-IXPWINDi_r2_v1.2.,2013-06-11 00:44:00,
2013-06-10 20:49:00,64.5,62.7,29.88,West,277,0.0,5.0,94,0.00,,,0.00,0,HR-IXPWINDi_r2_v1.2.,2013-06-11 00:49:00,
2013-06-10 20:54:00,64.5,62.7,29.88,West,274,0.0,6.0,94,0.00,,,0.00,0,HR-IXPWINDi_r2_v1.2.,2013-06-11 00:54:00,
2013-06-10 20:59:00,64.5,62.7,29.88,West,270,1.0,6.0,94,0.00,,,0.00,0,HR-IXPWINDi_r2_v1.2.,2013-06-11 00:59:00,
2013-06-10 21:04:00,64.3,62.5,29.88,NE,41,3.0,3.0,94,0.00,,,0.00,0,HR-IXPWINDi_r2_v1.2.,2013-06-11 01:04:00,
2013-06-10 21:09:00,64.5,62.7,29.87,NNE,32,2.0,3.0,94,0.00,,,0.00,0,HR-IXPWINDi_r2_v1.2.,2013-06-11 01:09:00,
2013-06-10 21:14:00,64.3,62.5,29.87,NNW,347,0.0,4.0,94,0.00,,,0.00,0,HR-IXPWINDi_r2_v1.2.,2013-06-11 01:14:00,
2013-06-10 21:20:00,64.3,62.5,29.87,NNW,344,0.0,4.0,94,0.00,,,0.00,0,HR-IXPWINDi_r2_v1.2.,2013-06-11 01:20:00,
2013-06-10 21:25:00,64.3,62.5,29.86,NNW,347,2.0,2.0,94,0.00,,,0.00,0,HR-IXPWINDi_r2_v1.2.,2013-06-11 01:25:00,
2013-06-10 21:30:00,64.3,62.5,29.86,West,271,5.0,5.0,94,0.00,,,0.00,0,HR-IXPWINDi_r2_v1.2.,2013-06-11 01:30:00,
2013-06-10 21:35:00,64.3,62.5,29.86,West,274,0.0,5.0,94,0.00,,,0.00,0,HR-IXPWINDi_r2_v1.2.,2013-06-11 01:35:00,
2013-06-10 21:40:00,64.3,62.5,29.86,West,272,0.0,5.0,94,0.00,,,0.00,0,HR-IXPWINDi_r2_v1.2.,2013-06-11 01:40:00,
2013-06-10 21:45:00,64.5,62.7,29.86,West,272,0.0,2.0,94,0.00,,,0.00,0,HR-IXPWINDi_r2_v1.2.,2013-06-11 01:45:00,
2013-06-10 21:51:00,64.5,62.7,29.86,West,263,0.0,2.0,94,0.00,,,0.00,0,HR-IXPWINDi_r2_v1.2.,2013-06-11 01:51:00,
2013-06-10 21:56:00,64.3,62.5,29.86,SSE,167,1.0,5.0,94,0.00,,,0.00,0,HR-IXPWINDi_r2_v1.2.,2013-06-11 01:56:00,
2013-06-10 22:01:00,64.3,62.5,29.86,SSE,168,0.0,5.0,94,0.00,,,0.00,0,HR-IXPWINDi_r2_v1.2.,2013-06-11 02:01:00,
2013-06-10 22:06:00,64.2,62.4,29.85,NNW,329,1.0,5.0,94,0.00,,,0.00,0,HR-IXPWINDi_r2_v1.2.,2013-06-11 02:06:00,
2013-06-10 22:11:00,64.2,62.4,29.85,West,270,2.0,5.0,94,0.00,,,0.00,0,HR-IXPWINDi_r2_v1.2.,2013-06-11 02:11:00,
2013-06-10 22:16:00,64.2,62.4,29.85,East,97,3.0,6.0,94,0.00,,,0.00,0,HR-IXPWINDi_r2_v1.2.,2013-06-11 02:16:00,
2013-06-10 22:22:00,64.3,62.5,29.86,ESE,107,0.0,6.0,94,0.00,,,0.00,0,HR-IXPWINDi_r2_v1.2.,2013-06-11 02:22:00,
2013-06-10 22:27:00,64.3,62.5,29.86,SW,215,0.0,6.0,94,0.00,,,0.00,0,HR-IXPWINDi_r2_v1.2.,2013-06-11 02:27:00,
2013-06-10 22:32:00,64.2,62.4,29.86,SW,217,0.0,5.0,94,0.00,,,0.00,0,HR-IXPWINDi_r2_v1.2.,2013-06-11 02:32:00,
2013-06-10 22:38:00,64.2,62.7,29.86,SSW,213,1.0,2.0,95,0.00,,,0.00,0,HR-IXPWINDi_r2_v1.2.,2013-06-11 02:38:00,
2013-06-10 22:43:00,64.3,62.5,29.86,SSW,213,0.0,2.0,94,0.00,,,0.00,0,HR-IXPWINDi_r2_v1.2.,2013-06-11 02:43:00,
2013-06-10 22:48:00,64.3,62.8,29.86,SSW,213,0.0,2.0,95,0.00,,,0.00,0,HR-IXPWINDi_r2_v1.2.,2013-06-11 02:48:00,
2013-06-10 22:53:00,64.3,62.8,29.86,SW,215,1.0,2.0,95,0.00,,,0.00,0,HR-IXPWINDi_r2_v1.2.,2013-06-11 02:53:00,
2013-06-10 22:58:00,64.5,63.0,29.86,SW,215,0.0,3.0,95,0.00,,,0.00,0,HR-IXPWINDi_r2_v1.2.,2013-06-11 02:58:00,
2013-06-10 23:03:00,64.5,63.0,29.86,SSW,213,0.0,3.0,95,0.00,,,0.00,0,HR-IXPWINDi_r2_v1.2.,2013-06-11 03:03:00,
2013-06-10 23:09:00,64.5,63.0,29.85,SSE,161,0.0,3.0,95,0.00,,,0.00,0,HR-IXPWINDi_r2_v1.2.,2013-06-11 03:09:00,
2013-06-10 23:14:00,64.7,63.2,29.85,SSE,164,0.0,3.0,95,0.00,,,0.00,0,HR-IXPWINDi_r2_v1.2.,2013-06-11 03:14:00,
2013-06-10 23:19:00,64.5,63.0,29.85,SSE,162,0.0,2.0,95,0.00,,,0.00,0,HR-IXPWINDi_r2_v1.2.,2013-06-11 03:19:00,
2013-06-10 23:24:00,64.5,63.0,29.83,West,263,0.0,3.0,95,0.00,,,0.00,0,HR-IXPWINDi_r2_v1.2.,2013-06-11 03:24:00,
2013-06-10 23:29:00,64.5,63.0,29.83,West,265,0.0,3.0,95,0.00,,,0.00,0,HR-IXPWINDi_r2_v1.2.,2013-06-11 03:29:00,
2013-06-10 23:34:00,64.5,63.0,29.83,West,268,0.0,2.0,95,0.00,,,0.00,0,HR-IXPWINDi_r2_v1.2.,2013-06-11 03:34:00,
2013-06-10 23:39:00,64.7,63.2,29.82,West,268,0.0,2.0,95,0.00,,,0.00,0,HR-IXPWINDi_r2_v1.2.,2013-06-11 03:39:00,
2013-06-10 23:44:00,64.7,63.2,29.82,West,270,2.0,2.0,95,0.00,,,0.00,0,HR-IXPWINDi_r2_v1.2.,2013-06-11 03:44:00,
2013-06-10 23:50:00,64.7,63.2,29.82,West,268,0.0,2.0,95,0.00,,,0.00,0,HR-IXPWINDi_r2_v1.2.,2013-06-11 03:50:00,
2013-06-10 23:55:00,64.7,63.2,29.82,West,270,0.0,2.0,95,0.00,,,0.00,0,HR-IXPWINDi_r2_v1.2.,2013-06-11 03:55:00,